<?xml version="1.0" encoding="UTF-8" standalone="no" ?>
<gpx xmlns="http://www.topografix.com/GPX/1/1" xmlns:xsi="http://www.w3.org/2001/XMLSchema-instance" xsi:schemaLocation="http://www.topografix.com/GPX/1/1 http://www.topografix.com/GPX/1/1/gpx.xsd" version="1.1" creator="VisuGPX - https://www.visugpx.com">
  <metadata>
    <name>Transcaucasie: Géorgie + Arménie</name>
  </metadata>
  <trk>
    <name><![CDATA[Tour d'Europe: étape 489]]></name>
    <extensions>
      <line xmlns="http://www.topografix.com/GPX/gpx_style/0/2">
        <color>880088</color>
        <width>4</width>
      </line>
    </extensions>
    <trkseg>
      <trkpt lat="40.18422" lon="44.51247">
        <ele>1067.030646</ele>
        <time>2021-10-30T05:28:05.806Z</time>
      </trkpt>
      <trkpt lat="40.18494" lon="44.51256">
        <ele>1067.030646</ele>
        <time>2021-10-30T05:28:42.779Z</time>
      </trkpt>
      <trkpt lat="40.18658" lon="44.51442">
        <ele>1057.217869</ele>
        <time>2021-10-30T05:29:59.790Z</time>
      </trkpt>
      <trkpt lat="40.18847" lon="44.51427">
        <ele>1053.877237</ele>
        <time>2021-10-30T05:31:31.813Z</time>
      </trkpt>
      <trkpt lat="40.19029" lon="44.51268">
        <ele>1068.077215</ele>
        <time>2021-10-30T05:32:34.841Z</time>
      </trkpt>
      <trkpt lat="40.19149" lon="44.51049">
        <ele>1069.023712</ele>
        <time>2021-10-30T05:33:54.784Z</time>
      </trkpt>
      <trkpt lat="40.1919" lon="44.50797">
        <ele>1075.686163</ele>
        <time>2021-10-30T05:35:24.767Z</time>
      </trkpt>
      <trkpt lat="40.19215" lon="44.50538">
        <ele>1087.620748</ele>
        <time>2021-10-30T05:37:00.774Z</time>
      </trkpt>
      <trkpt lat="40.19239" lon="44.50266">
        <ele>1093.766232</ele>
        <time>2021-10-30T05:38:43.792Z</time>
      </trkpt>
      <trkpt lat="40.19256" lon="44.50011">
        <ele>1105.623724</ele>
        <time>2021-10-30T05:40:23.813Z</time>
      </trkpt>
      <trkpt lat="40.19382" lon="44.49788">
        <ele>1120.620398</ele>
        <time>2021-10-30T05:41:24.789Z</time>
      </trkpt>
      <trkpt lat="40.19527" lon="44.49547">
        <ele>1142.030172</ele>
        <time>2021-10-30T05:43:53.781Z</time>
      </trkpt>
      <trkpt lat="40.19663" lon="44.4936">
        <ele>1139.097538</ele>
        <time>2021-10-30T05:45:31.773Z</time>
      </trkpt>
      <trkpt lat="40.19844" lon="44.49329">
        <ele>1139.453534</ele>
        <time>2021-10-30T05:46:42.779Z</time>
      </trkpt>
      <trkpt lat="40.2005" lon="44.49411">
        <ele>1172.617942</ele>
        <time>2021-10-30T05:48:14.778Z</time>
      </trkpt>
      <trkpt lat="40.20165" lon="44.49598">
        <ele>1165.516397</ele>
        <time>2021-10-30T05:49:44.783Z</time>
      </trkpt>
      <trkpt lat="40.20255" lon="44.49823">
        <ele>1167.347791</ele>
        <time>2021-10-30T05:51:44.771Z</time>
      </trkpt>
      <trkpt lat="40.20431" lon="44.49767">
        <ele>1161.641648</ele>
        <time>2021-10-30T05:53:29.793Z</time>
      </trkpt>
      <trkpt lat="40.20635" lon="44.49632">
        <ele>1151.779405</ele>
        <time>2021-10-30T05:54:19.793Z</time>
      </trkpt>
      <trkpt lat="40.20867" lon="44.49439">
        <ele>1131.715135</ele>
        <time>2021-10-30T05:54:59.785Z</time>
      </trkpt>
      <trkpt lat="40.2108" lon="44.49248">
        <ele>1124.609092</ele>
        <time>2021-10-30T05:55:41.811Z</time>
      </trkpt>
      <trkpt lat="40.21277" lon="44.49213">
        <ele>1125.235245</ele>
        <time>2021-10-30T05:56:22.796Z</time>
      </trkpt>
      <trkpt lat="40.21441" lon="44.49399">
        <ele>1131.92212</ele>
        <time>2021-10-30T05:57:09.806Z</time>
      </trkpt>
      <trkpt lat="40.21588" lon="44.49601">
        <ele>1145.431506</ele>
        <time>2021-10-30T05:58:59.845Z</time>
      </trkpt>
      <trkpt lat="40.21721" lon="44.49788">
        <ele>1160.386647</ele>
        <time>2021-10-30T06:01:00.802Z</time>
      </trkpt>
      <trkpt lat="40.21874" lon="44.49989">
        <ele>1170.04932</ele>
        <time>2021-10-30T06:02:25.808Z</time>
      </trkpt>
      <trkpt lat="40.22024" lon="44.50188">
        <ele>1182.98124</ele>
        <time>2021-10-30T06:03:26.813Z</time>
      </trkpt>
      <trkpt lat="40.22167" lon="44.50375">
        <ele>1176.152117</ele>
        <time>2021-10-30T06:05:16.792Z</time>
      </trkpt>
      <trkpt lat="40.22336" lon="44.50543">
        <ele>1190.370199</ele>
        <time>2021-10-30T06:07:14.797Z</time>
      </trkpt>
      <trkpt lat="40.22487" lon="44.5073">
        <ele>1197.549033</ele>
        <time>2021-10-30T06:08:33.800Z</time>
      </trkpt>
      <trkpt lat="40.22633" lon="44.50932">
        <ele>1189.846325</ele>
        <time>2021-10-30T06:09:37.833Z</time>
      </trkpt>
      <trkpt lat="40.22857" lon="44.50989">
        <ele>1182.569314</ele>
        <time>2021-10-30T06:10:37.781Z</time>
      </trkpt>
      <trkpt lat="40.23055" lon="44.5102">
        <ele>1199.286065</ele>
        <time>2021-10-30T06:12:22.796Z</time>
      </trkpt>
      <trkpt lat="40.23252" lon="44.51091">
        <ele>1202.083621</ele>
        <time>2021-10-30T06:13:44.806Z</time>
      </trkpt>
      <trkpt lat="40.23479" lon="44.51072">
        <ele>1192.28658</ele>
        <time>2021-10-30T06:14:34.820Z</time>
      </trkpt>
      <trkpt lat="40.23679" lon="44.51005">
        <ele>1196.721621</ele>
        <time>2021-10-30T06:15:51.784Z</time>
      </trkpt>
      <trkpt lat="40.23853" lon="44.50865">
        <ele>1205.276683</ele>
        <time>2021-10-30T06:17:23.806Z</time>
      </trkpt>
      <trkpt lat="40.24013" lon="44.50675">
        <ele>1210.781553</ele>
        <time>2021-10-30T06:18:47.792Z</time>
      </trkpt>
      <trkpt lat="40.24149" lon="44.50432">
        <ele>1214.720182</ele>
        <time>2021-10-30T06:19:47.790Z</time>
      </trkpt>
      <trkpt lat="40.24228" lon="44.50192">
        <ele>1221.465861</ele>
        <time>2021-10-30T06:21:08.805Z</time>
      </trkpt>
      <trkpt lat="40.2438" lon="44.50012">
        <ele>1230.714421</ele>
        <time>2021-10-30T06:23:12.802Z</time>
      </trkpt>
      <trkpt lat="40.24565" lon="44.49935">
        <ele>1237.520765</ele>
        <time>2021-10-30T06:25:02.805Z</time>
      </trkpt>
      <trkpt lat="40.24764" lon="44.49851">
        <ele>1239.260895</ele>
        <time>2021-10-30T06:26:31.807Z</time>
      </trkpt>
      <trkpt lat="40.24977" lon="44.49766">
        <ele>1242.030508</ele>
        <time>2021-10-30T06:27:34.804Z</time>
      </trkpt>
      <trkpt lat="40.25168" lon="44.49698">
        <ele>1245.172937</ele>
        <time>2021-10-30T06:28:38.814Z</time>
      </trkpt>
      <trkpt lat="40.25376" lon="44.49604">
        <ele>1252.849786</ele>
        <time>2021-10-30T06:35:56.815Z</time>
      </trkpt>
      <trkpt lat="40.25593" lon="44.49517">
        <ele>1258.054386</ele>
        <time>2021-10-30T06:39:58.832Z</time>
      </trkpt>
      <trkpt lat="40.25794" lon="44.49435">
        <ele>1264.036669</ele>
        <time>2021-10-30T06:41:24.803Z</time>
      </trkpt>
      <trkpt lat="40.25991" lon="44.49348">
        <ele>1266.223278</ele>
        <time>2021-10-30T06:43:15.793Z</time>
      </trkpt>
      <trkpt lat="40.26193" lon="44.49257">
        <ele>1274.485701</ele>
        <time>2021-10-30T06:44:42.792Z</time>
      </trkpt>
      <trkpt lat="40.26376" lon="44.49174">
        <ele>1291.059519</ele>
        <time>2021-10-30T06:47:03.812Z</time>
      </trkpt>
      <trkpt lat="40.2658" lon="44.49099">
        <ele>1300.033975</ele>
        <time>2021-10-30T06:49:12.805Z</time>
      </trkpt>
      <trkpt lat="40.26786" lon="44.49043">
        <ele>1304.571891</ele>
        <time>2021-10-30T06:50:30.835Z</time>
      </trkpt>
      <trkpt lat="40.26983" lon="44.48944">
        <ele>1308.739278</ele>
        <time>2021-10-30T06:51:25.807Z</time>
      </trkpt>
      <trkpt lat="40.2719" lon="44.48841">
        <ele>1316.881066</ele>
        <time>2021-10-30T06:52:55.806Z</time>
      </trkpt>
      <trkpt lat="40.27379" lon="44.48727">
        <ele>1322.705513</ele>
        <time>2021-10-30T06:54:02.820Z</time>
      </trkpt>
      <trkpt lat="40.27576" lon="44.48616">
        <ele>1323.371319</ele>
        <time>2021-10-30T06:54:54.805Z</time>
      </trkpt>
      <trkpt lat="40.27782" lon="44.48494">
        <ele>1325.843404</ele>
        <time>2021-10-30T06:56:04.790Z</time>
      </trkpt>
      <trkpt lat="40.27991" lon="44.48375">
        <ele>1323.437942</ele>
        <time>2021-10-30T06:57:04.798Z</time>
      </trkpt>
      <trkpt lat="40.28186" lon="44.48261">
        <ele>1316.858641</ele>
        <time>2021-10-30T06:57:48.786Z</time>
      </trkpt>
      <trkpt lat="40.28408" lon="44.48141">
        <ele>1313.371587</ele>
        <time>2021-10-30T06:58:43.817Z</time>
      </trkpt>
      <trkpt lat="40.28624" lon="44.48016">
        <ele>1312.932557</ele>
        <time>2021-10-30T06:59:38.802Z</time>
      </trkpt>
      <trkpt lat="40.28812" lon="44.47906">
        <ele>1329.003307</ele>
        <time>2021-10-30T07:00:59.803Z</time>
      </trkpt>
      <trkpt lat="40.29007" lon="44.4779">
        <ele>1332.53732</ele>
        <time>2021-10-30T07:02:37.825Z</time>
      </trkpt>
      <trkpt lat="40.29209" lon="44.47712">
        <ele>1326.711788</ele>
        <time>2021-10-30T07:03:44.792Z</time>
      </trkpt>
      <trkpt lat="40.29418" lon="44.47642">
        <ele>1328.615202</ele>
        <time>2021-10-30T07:04:44.805Z</time>
      </trkpt>
      <trkpt lat="40.29632" lon="44.4757">
        <ele>1333.069862</ele>
        <time>2021-10-30T07:05:48.828Z</time>
      </trkpt>
      <trkpt lat="40.29858" lon="44.47495">
        <ele>1335.225885</ele>
        <time>2021-10-30T07:06:48.821Z</time>
      </trkpt>
      <trkpt lat="40.301" lon="44.47417">
        <ele>1334.774807</ele>
        <time>2021-10-30T07:07:51.821Z</time>
      </trkpt>
      <trkpt lat="40.3033" lon="44.4734">
        <ele>1337.586445</ele>
        <time>2021-10-30T07:08:51.826Z</time>
      </trkpt>
      <trkpt lat="40.30556" lon="44.47261">
        <ele>1341.793308</ele>
        <time>2021-10-30T07:09:51.806Z</time>
      </trkpt>
      <trkpt lat="40.30763" lon="44.47203">
        <ele>1344.79891</ele>
        <time>2021-10-30T07:10:54.806Z</time>
      </trkpt>
      <trkpt lat="40.30971" lon="44.47248">
        <ele>1339.177438</ele>
        <time>2021-10-30T07:11:40.830Z</time>
      </trkpt>
      <trkpt lat="40.31181" lon="44.4732">
        <ele>1336.2018</ele>
        <time>2021-10-30T07:12:29.813Z</time>
      </trkpt>
      <trkpt lat="40.3141" lon="44.47405">
        <ele>1337.564368</ele>
        <time>2021-10-30T07:13:32.836Z</time>
      </trkpt>
      <trkpt lat="40.31622" lon="44.47453">
        <ele>1346.35619</ele>
        <time>2021-10-30T07:14:32.810Z</time>
      </trkpt>
      <trkpt lat="40.31844" lon="44.47491">
        <ele>1352.098991</ele>
        <time>2021-10-30T07:15:32.802Z</time>
      </trkpt>
      <trkpt lat="40.32005" lon="44.47656">
        <ele>1352.869391</ele>
        <time>2021-10-30T07:16:40.835Z</time>
      </trkpt>
      <trkpt lat="40.32039" lon="44.47917">
        <ele>1353.929668</ele>
        <time>2021-10-30T07:17:47.843Z</time>
      </trkpt>
      <trkpt lat="40.32113" lon="44.48177">
        <ele>1355.981332</ele>
        <time>2021-10-30T07:18:53.795Z</time>
      </trkpt>
      <trkpt lat="40.32256" lon="44.48393">
        <ele>1361.633088</ele>
        <time>2021-10-30T07:20:07.818Z</time>
      </trkpt>
      <trkpt lat="40.32311" lon="44.48643">
        <ele>1371.45663</ele>
        <time>2021-10-30T07:21:34.812Z</time>
      </trkpt>
      <trkpt lat="40.3242" lon="44.48847">
        <ele>1374.227377</ele>
        <time>2021-10-30T07:23:02.814Z</time>
      </trkpt>
      <trkpt lat="40.32598" lon="44.4901">
        <ele>1372.690667</ele>
        <time>2021-10-30T07:24:23.807Z</time>
      </trkpt>
      <trkpt lat="40.32772" lon="44.49167">
        <ele>1376.114153</ele>
        <time>2021-10-30T07:25:37.817Z</time>
      </trkpt>
      <trkpt lat="40.32946" lon="44.49318">
        <ele>1381.874871</ele>
        <time>2021-10-30T07:26:51.806Z</time>
      </trkpt>
      <trkpt lat="40.33129" lon="44.49484">
        <ele>1387.088462</ele>
        <time>2021-10-30T07:28:18.812Z</time>
      </trkpt>
      <trkpt lat="40.33297" lon="44.49639">
        <ele>1393.677899</ele>
        <time>2021-10-30T07:29:43.813Z</time>
      </trkpt>
      <trkpt lat="40.33468" lon="44.49799">
        <ele>1395.047906</ele>
        <time>2021-10-30T07:31:09.803Z</time>
      </trkpt>
      <trkpt lat="40.33623" lon="44.49977">
        <ele>1398.642925</ele>
        <time>2021-10-30T07:32:22.815Z</time>
      </trkpt>
      <trkpt lat="40.33782" lon="44.50155">
        <ele>1409.56017</ele>
        <time>2021-10-30T07:33:55.854Z</time>
      </trkpt>
      <trkpt lat="40.3394" lon="44.50332">
        <ele>1418.943441</ele>
        <time>2021-10-30T07:35:42.827Z</time>
      </trkpt>
      <trkpt lat="40.34092" lon="44.50504">
        <ele>1429.188578</ele>
        <time>2021-10-30T07:37:42.827Z</time>
      </trkpt>
      <trkpt lat="40.34246" lon="44.50661">
        <ele>1443.534144</ele>
        <time>2021-10-30T07:39:49.813Z</time>
      </trkpt>
      <trkpt lat="40.34429" lon="44.508">
        <ele>1457.845103</ele>
        <time>2021-10-30T07:41:39.827Z</time>
      </trkpt>
      <trkpt lat="40.3461" lon="44.50937">
        <ele>1461.908792</ele>
        <time>2021-10-30T07:43:00.825Z</time>
      </trkpt>
      <trkpt lat="40.34781" lon="44.51071">
        <ele>1461.857491</ele>
        <time>2021-10-30T07:44:25.861Z</time>
      </trkpt>
      <trkpt lat="40.34955" lon="44.51255">
        <ele>1463.781027</ele>
        <time>2021-10-30T07:45:48.810Z</time>
      </trkpt>
      <trkpt lat="40.35111" lon="44.51421">
        <ele>1466.657027</ele>
        <time>2021-10-30T07:46:55.825Z</time>
      </trkpt>
      <trkpt lat="40.35278" lon="44.51602">
        <ele>1470.976249</ele>
        <time>2021-10-30T07:48:11.846Z</time>
      </trkpt>
      <trkpt lat="40.35421" lon="44.51797">
        <ele>1478.193764</ele>
        <time>2021-10-30T07:49:39.821Z</time>
      </trkpt>
      <trkpt lat="40.35551" lon="44.51995">
        <ele>1483.280878</ele>
        <time>2021-10-30T07:51:14.797Z</time>
      </trkpt>
      <trkpt lat="40.35686" lon="44.52199">
        <ele>1490.747649</ele>
        <time>2021-10-30T07:56:55.839Z</time>
      </trkpt>
      <trkpt lat="40.35793" lon="44.52437">
        <ele>1501.385454</ele>
        <time>2021-10-30T07:58:45.798Z</time>
      </trkpt>
      <trkpt lat="40.35888" lon="44.52673">
        <ele>1497.40435</ele>
        <time>2021-10-30T08:00:38.817Z</time>
      </trkpt>
      <trkpt lat="40.36022" lon="44.52872">
        <ele>1494.901443</ele>
        <time>2021-10-30T08:02:16.820Z</time>
      </trkpt>
      <trkpt lat="40.36175" lon="44.53063">
        <ele>1501.279639</ele>
        <time>2021-10-30T08:03:43.820Z</time>
      </trkpt>
      <trkpt lat="40.3634" lon="44.53223">
        <ele>1506.396563</ele>
        <time>2021-10-30T08:05:03.822Z</time>
      </trkpt>
      <trkpt lat="40.36498" lon="44.53372">
        <ele>1515.871522</ele>
        <time>2021-10-30T08:06:23.822Z</time>
      </trkpt>
      <trkpt lat="40.36671" lon="44.53537">
        <ele>1527.79241</ele>
        <time>2021-10-30T08:08:03.827Z</time>
      </trkpt>
      <trkpt lat="40.36835" lon="44.53694">
        <ele>1538.029565</ele>
        <time>2021-10-30T08:11:03.822Z</time>
      </trkpt>
      <trkpt lat="40.36997" lon="44.53855">
        <ele>1549.503479</ele>
        <time>2021-10-30T08:13:14.839Z</time>
      </trkpt>
      <trkpt lat="40.37184" lon="44.53931">
        <ele>1568.818057</ele>
        <time>2021-10-30T08:15:25.814Z</time>
      </trkpt>
      <trkpt lat="40.37378" lon="44.53999">
        <ele>1580.812444</ele>
        <time>2021-10-30T08:17:23.830Z</time>
      </trkpt>
      <trkpt lat="40.37541" lon="44.54159">
        <ele>1587.091123</ele>
        <time>2021-10-30T08:19:11.826Z</time>
      </trkpt>
      <trkpt lat="40.37683" lon="44.54346">
        <ele>1597.154542</ele>
        <time>2021-10-30T08:20:55.820Z</time>
      </trkpt>
      <trkpt lat="40.3786" lon="44.54425">
        <ele>1606.696898</ele>
        <time>2021-10-30T08:22:37.839Z</time>
      </trkpt>
      <trkpt lat="40.38075" lon="44.54386">
        <ele>1612.877018</ele>
        <time>2021-10-30T08:24:10.825Z</time>
      </trkpt>
      <trkpt lat="40.38276" lon="44.54384">
        <ele>1618.470032</ele>
        <time>2021-10-30T08:25:35.833Z</time>
      </trkpt>
      <trkpt lat="40.38477" lon="44.54427">
        <ele>1621.867862</ele>
        <time>2021-10-30T08:27:04.837Z</time>
      </trkpt>
      <trkpt lat="40.38691" lon="44.54413">
        <ele>1625.369049</ele>
        <time>2021-10-30T08:28:24.856Z</time>
      </trkpt>
      <trkpt lat="40.38893" lon="44.54376">
        <ele>1627.774262</ele>
        <time>2021-10-30T08:29:32.842Z</time>
      </trkpt>
      <trkpt lat="40.39092" lon="44.54384">
        <ele>1631.190551</ele>
        <time>2021-10-30T08:30:37.900Z</time>
      </trkpt>
      <trkpt lat="40.39322" lon="44.54407">
        <ele>1636.309372</ele>
        <time>2021-10-30T08:32:01.840Z</time>
      </trkpt>
      <trkpt lat="40.39515" lon="44.54452">
        <ele>1638.383</ele>
        <time>2021-10-30T08:33:04.825Z</time>
      </trkpt>
      <trkpt lat="40.39719" lon="44.54526">
        <ele>1642.058446</ele>
        <time>2021-10-30T08:34:18.836Z</time>
      </trkpt>
      <trkpt lat="40.399" lon="44.54457">
        <ele>1649.828635</ele>
        <time>2021-10-30T08:35:36.821Z</time>
      </trkpt>
      <trkpt lat="40.4002" lon="44.54227">
        <ele>1658.259881</ele>
        <time>2021-10-30T08:36:53.843Z</time>
      </trkpt>
      <trkpt lat="40.40144" lon="44.54024">
        <ele>1667.993776</ele>
        <time>2021-10-30T08:38:25.836Z</time>
      </trkpt>
      <trkpt lat="40.40279" lon="44.53921">
        <ele>1679.86666</ele>
        <time>2021-10-30T08:44:21.845Z</time>
      </trkpt>
      <trkpt lat="40.40427" lon="44.54032">
        <ele>1696.489754</ele>
        <time>2021-10-30T08:47:05.841Z</time>
      </trkpt>
      <trkpt lat="40.40516" lon="44.538">
        <ele>1714.092688</ele>
        <time>2021-10-30T08:49:19.834Z</time>
      </trkpt>
      <trkpt lat="40.40644" lon="44.53594">
        <ele>1713.389287</ele>
        <time>2021-10-30T08:51:22.833Z</time>
      </trkpt>
      <trkpt lat="40.40818" lon="44.53432">
        <ele>1712.534234</ele>
        <time>2021-10-30T08:52:44.831Z</time>
      </trkpt>
      <trkpt lat="40.41022" lon="44.53269">
        <ele>1711.763608</ele>
        <time>2021-10-30T08:53:37.831Z</time>
      </trkpt>
      <trkpt lat="40.41204" lon="44.53156">
        <ele>1720.100576</ele>
        <time>2021-10-30T08:55:21.842Z</time>
      </trkpt>
      <trkpt lat="40.41381" lon="44.53043">
        <ele>1731.375865</ele>
        <time>2021-10-30T08:57:20.846Z</time>
      </trkpt>
      <trkpt lat="40.41565" lon="44.52919">
        <ele>1743.987451</ele>
        <time>2021-10-30T08:59:28.841Z</time>
      </trkpt>
      <trkpt lat="40.41712" lon="44.52739">
        <ele>1760.367104</ele>
        <time>2021-10-30T09:18:57.865Z</time>
      </trkpt>
      <trkpt lat="40.41847" lon="44.5256">
        <ele>1778.697494</ele>
        <time>2021-10-30T09:21:07.882Z</time>
      </trkpt>
      <trkpt lat="40.41991" lon="44.52367">
        <ele>1798.325389</ele>
        <time>2021-10-30T09:23:30.834Z</time>
      </trkpt>
      <trkpt lat="40.42129" lon="44.52188">
        <ele>1810.409548</ele>
        <time>2021-10-30T09:25:46.850Z</time>
      </trkpt>
      <trkpt lat="40.42267" lon="44.52008">
        <ele>1826.260479</ele>
        <time>2021-10-30T09:28:06.853Z</time>
      </trkpt>
      <trkpt lat="40.42411" lon="44.51815">
        <ele>1845.019026</ele>
        <time>2021-10-30T09:32:23.842Z</time>
      </trkpt>
      <trkpt lat="40.42534" lon="44.51613">
        <ele>1860.233721</ele>
        <time>2021-10-30T09:34:39.857Z</time>
      </trkpt>
      <trkpt lat="40.42646" lon="44.51408">
        <ele>1872.318719</ele>
        <time>2021-10-30T09:36:46.833Z</time>
      </trkpt>
      <trkpt lat="40.42765" lon="44.51189">
        <ele>1882.641166</ele>
        <time>2021-10-30T09:38:41.841Z</time>
      </trkpt>
      <trkpt lat="40.42879" lon="44.50979">
        <ele>1885.756445</ele>
        <time>2021-10-30T09:40:23.852Z</time>
      </trkpt>
      <trkpt lat="40.43" lon="44.50755">
        <ele>1878.944771</ele>
        <time>2021-10-30T09:41:44.831Z</time>
      </trkpt>
      <trkpt lat="40.43129" lon="44.5052">
        <ele>1877.661372</ele>
        <time>2021-10-30T09:42:53.839Z</time>
      </trkpt>
      <trkpt lat="40.43249" lon="44.50302">
        <ele>1877.590865</ele>
        <time>2021-10-30T09:43:54.854Z</time>
      </trkpt>
      <trkpt lat="40.43368" lon="44.50082">
        <ele>1877.263522</ele>
        <time>2021-10-30T09:44:54.840Z</time>
      </trkpt>
      <trkpt lat="40.43504" lon="44.49835">
        <ele>1882.998343</ele>
        <time>2021-10-30T09:45:48.847Z</time>
      </trkpt>
      <trkpt lat="40.43618" lon="44.4963">
        <ele>1897.422304</ele>
        <time>2021-10-30T09:48:02.837Z</time>
      </trkpt>
      <trkpt lat="40.43735" lon="44.49411">
        <ele>1900.726841</ele>
        <time>2021-10-30T09:50:10.850Z</time>
      </trkpt>
      <trkpt lat="40.43861" lon="44.49189">
        <ele>1900.593586</ele>
        <time>2021-10-30T09:51:25.837Z</time>
      </trkpt>
      <trkpt lat="40.43978" lon="44.48965">
        <ele>1901.151009</ele>
        <time>2021-10-30T09:52:29.852Z</time>
      </trkpt>
      <trkpt lat="40.44106" lon="44.48737">
        <ele>1903.684865</ele>
        <time>2021-10-30T09:54:06.854Z</time>
      </trkpt>
      <trkpt lat="40.44222" lon="44.48521">
        <ele>1912.425839</ele>
        <time>2021-10-30T09:55:39.834Z</time>
      </trkpt>
      <trkpt lat="40.44344" lon="44.48321">
        <ele>1925.85355</ele>
        <time>2021-10-30T09:57:57.879Z</time>
      </trkpt>
      <trkpt lat="40.44506" lon="44.4811">
        <ele>1930.617795</ele>
        <time>2021-10-30T09:59:25.853Z</time>
      </trkpt>
      <trkpt lat="40.44659" lon="44.47943">
        <ele>1920.038297</ele>
        <time>2021-10-30T10:00:08.854Z</time>
      </trkpt>
      <trkpt lat="40.44822" lon="44.47767">
        <ele>1915.465238</ele>
        <time>2021-10-30T10:00:51.851Z</time>
      </trkpt>
      <trkpt lat="40.45036" lon="44.47527">
        <ele>1916.060817</ele>
        <time>2021-10-30T10:01:33.847Z</time>
      </trkpt>
      <trkpt lat="40.45127" lon="44.47143">
        <ele>1923.806767</ele>
        <time>2021-10-30T10:02:13.833Z</time>
      </trkpt>
      <trkpt lat="40.45155" lon="44.46779">
        <ele>1920.224944</ele>
        <time>2021-10-30T10:02:53.868Z</time>
      </trkpt>
      <trkpt lat="40.45203" lon="44.46473">
        <ele>1907.40959</ele>
        <time>2021-10-30T10:03:51.844Z</time>
      </trkpt>
      <trkpt lat="40.45348" lon="44.46226">
        <ele>1892.953156</ele>
        <time>2021-10-30T10:04:48.857Z</time>
      </trkpt>
      <trkpt lat="40.45459" lon="44.45988">
        <ele>1896.923776</ele>
        <time>2021-10-30T10:05:46.856Z</time>
      </trkpt>
      <trkpt lat="40.45498" lon="44.45708">
        <ele>1903.815436</ele>
        <time>2021-10-30T10:06:29.848Z</time>
      </trkpt>
      <trkpt lat="40.4553" lon="44.45415">
        <ele>1907.879712</ele>
        <time>2021-10-30T10:07:21.853Z</time>
      </trkpt>
      <trkpt lat="40.45563" lon="44.45161">
        <ele>1908.096529</ele>
        <time>2021-10-30T10:08:01.887Z</time>
      </trkpt>
      <trkpt lat="40.45628" lon="44.44854">
        <ele>1895.921507</ele>
        <time>2021-10-30T10:08:43.853Z</time>
      </trkpt>
      <trkpt lat="40.45686" lon="44.44592">
        <ele>1877.688572</ele>
        <time>2021-10-30T10:09:23.855Z</time>
      </trkpt>
      <trkpt lat="40.456" lon="44.44355">
        <ele>1847.636228</ele>
        <time>2021-10-30T10:10:03.832Z</time>
      </trkpt>
      <trkpt lat="40.45384" lon="44.44345">
        <ele>1819.165975</ele>
        <time>2021-10-30T10:10:47.842Z</time>
      </trkpt>
      <trkpt lat="40.45183" lon="44.44266">
        <ele>1801.004395</ele>
        <time>2021-10-30T10:11:29.859Z</time>
      </trkpt>
      <trkpt lat="40.451" lon="44.44011">
        <ele>1797.312561</ele>
        <time>2021-10-30T10:12:14.880Z</time>
      </trkpt>
      <trkpt lat="40.45273" lon="44.43953">
        <ele>1801.421848</ele>
        <time>2021-10-30T10:13:47.841Z</time>
      </trkpt>
      <trkpt lat="40.45466" lon="44.4395">
        <ele>1812.61207</ele>
        <time>2021-10-30T10:15:54.845Z</time>
      </trkpt>
      <trkpt lat="40.4567" lon="44.43939">
        <ele>1829.744594</ele>
        <time>2021-10-30T10:18:20.841Z</time>
      </trkpt>
      <trkpt lat="40.45868" lon="44.43936">
        <ele>1842.125006</ele>
        <time>2021-10-30T10:20:31.855Z</time>
      </trkpt>
      <trkpt lat="40.46067" lon="44.43894">
        <ele>1842.279801</ele>
        <time>2021-10-30T10:21:43.852Z</time>
      </trkpt>
      <trkpt lat="40.46252" lon="44.43771">
        <ele>1850.752509</ele>
        <time>2021-10-30T10:22:51.858Z</time>
      </trkpt>
      <trkpt lat="40.46341" lon="44.43538">
        <ele>1865.863714</ele>
        <time>2021-10-30T10:24:41.860Z</time>
      </trkpt>
      <trkpt lat="40.46419" lon="44.43293">
        <ele>1866.795888</ele>
        <time>2021-10-30T10:26:17.870Z</time>
      </trkpt>
      <trkpt lat="40.4656" lon="44.42983">
        <ele>1859.305147</ele>
        <time>2021-10-30T10:27:03.853Z</time>
      </trkpt>
      <trkpt lat="40.46726" lon="44.42725">
        <ele>1852.537571</ele>
        <time>2021-10-30T10:27:42.846Z</time>
      </trkpt>
      <trkpt lat="40.46859" lon="44.42506">
        <ele>1858.708319</ele>
        <time>2021-10-30T10:28:43.852Z</time>
      </trkpt>
      <trkpt lat="40.46975" lon="44.42265">
        <ele>1858.779487</ele>
        <time>2021-10-30T10:30:07.846Z</time>
      </trkpt>
      <trkpt lat="40.47009" lon="44.41993">
        <ele>1853.830598</ele>
        <time>2021-10-30T10:31:27.868Z</time>
      </trkpt>
      <trkpt lat="40.47056" lon="44.41729">
        <ele>1859.589201</ele>
        <time>2021-10-30T10:32:42.858Z</time>
      </trkpt>
      <trkpt lat="40.47161" lon="44.41482">
        <ele>1863.620556</ele>
        <time>2021-10-30T10:33:46.858Z</time>
      </trkpt>
      <trkpt lat="40.47243" lon="44.41223">
        <ele>1854.250872</ele>
        <time>2021-10-30T10:34:58.894Z</time>
      </trkpt>
      <trkpt lat="40.47273" lon="44.40947">
        <ele>1851.721889</ele>
        <time>2021-10-30T10:36:18.855Z</time>
      </trkpt>
      <trkpt lat="40.47342" lon="44.40674">
        <ele>1858.636893</ele>
        <time>2021-10-30T10:37:42.854Z</time>
      </trkpt>
      <trkpt lat="40.47465" lon="44.40468">
        <ele>1875.785916</ele>
        <time>2021-10-30T10:39:32.860Z</time>
      </trkpt>
      <trkpt lat="40.4754" lon="44.40207">
        <ele>1887.343024</ele>
        <time>2021-10-30T10:41:20.871Z</time>
      </trkpt>
      <trkpt lat="40.47614" lon="44.39945">
        <ele>1884.458493</ele>
        <time>2021-10-30T10:42:21.854Z</time>
      </trkpt>
      <trkpt lat="40.47713" lon="44.3962">
        <ele>1875.614083</ele>
        <time>2021-10-30T10:43:01.855Z</time>
      </trkpt>
      <trkpt lat="40.47845" lon="44.39383">
        <ele>1878.849684</ele>
        <time>2021-10-30T10:44:11.886Z</time>
      </trkpt>
      <trkpt lat="40.47968" lon="44.39171">
        <ele>1889.292114</ele>
        <time>2021-10-30T10:45:35.900Z</time>
      </trkpt>
      <trkpt lat="40.48091" lon="44.38959">
        <ele>1895.004358</ele>
        <time>2021-10-30T10:47:07.858Z</time>
      </trkpt>
      <trkpt lat="40.48216" lon="44.38727">
        <ele>1888.247345</ele>
        <time>2021-10-30T10:48:33.865Z</time>
      </trkpt>
      <trkpt lat="40.4832" lon="44.38515">
        <ele>1884.123056</ele>
        <time>2021-10-30T10:50:02.874Z</time>
      </trkpt>
      <trkpt lat="40.4842" lon="44.38293">
        <ele>1887.100988</ele>
        <time>2021-10-30T10:51:24.862Z</time>
      </trkpt>
      <trkpt lat="40.48509" lon="44.38053">
        <ele>1881.426148</ele>
        <time>2021-10-30T10:52:54.846Z</time>
      </trkpt>
      <trkpt lat="40.48609" lon="44.37828">
        <ele>1889.292965</ele>
        <time>2021-10-30T10:54:37.854Z</time>
      </trkpt>
      <trkpt lat="40.48665" lon="44.37575">
        <ele>1880.865228</ele>
        <time>2021-10-30T10:56:11.855Z</time>
      </trkpt>
      <trkpt lat="40.48689" lon="44.37306">
        <ele>1883.036151</ele>
        <time>2021-10-30T10:58:05.863Z</time>
      </trkpt>
      <trkpt lat="40.48772" lon="44.37066">
        <ele>1882.251357</ele>
        <time>2021-10-30T10:59:52.843Z</time>
      </trkpt>
      <trkpt lat="40.48831" lon="44.36806">
        <ele>1891.864605</ele>
        <time>2021-10-30T11:05:04.900Z</time>
      </trkpt>
      <trkpt lat="40.48835" lon="44.36534">
        <ele>1902.367677</ele>
        <time>2021-10-30T11:06:36.857Z</time>
      </trkpt>
      <trkpt lat="40.4883" lon="44.36269">
        <ele>1916.340696</ele>
        <time>2021-10-30T11:08:23.846Z</time>
      </trkpt>
      <trkpt lat="40.48848" lon="44.36009">
        <ele>1930.917151</ele>
        <time>2021-10-30T11:10:00.886Z</time>
      </trkpt>
      <trkpt lat="40.48838" lon="44.35742">
        <ele>1935.870339</ele>
        <time>2021-10-30T11:11:52.855Z</time>
      </trkpt>
      <trkpt lat="40.48661" lon="44.35763">
        <ele>1945.460192</ele>
        <time>2021-10-30T11:12:59.882Z</time>
      </trkpt>
      <trkpt lat="40.48454" lon="44.35801">
        <ele>1953.599972</ele>
        <time>2021-10-30T11:13:45.862Z</time>
      </trkpt>
      <trkpt lat="40.48241" lon="44.35856">
        <ele>1957.509777</ele>
        <time>2021-10-30T11:14:39.870Z</time>
      </trkpt>
      <trkpt lat="40.48227" lon="44.3576">
        <ele>1957.509777</ele>
        <time>2021-10-30T11:16:24.605Z</time>
      </trkpt>
    </trkseg>
  </trk>
</gpx>